sensor_id;sensor_type;location;lat;lon;timestamp;temperature;humidity
45104;DHT22;30865;51.288;4.572;2023-07-31T00:01:43;16.30;99.90
45104;DHT22;30865;51.288;4.572;2023-07-31T00:04:08;16.30;99.90
45104;DHT22;30865;51.288;4.572;2023-07-31T00:06:34;16.40;99.90
45104;DHT22;30865;51.288;4.572;2023-07-31T00:08:59;16.50;99.90
45104;DHT22;30865;51.288;4.572;2023-07-31T00:11:25;16.50;99.90
45104;DHT22;30865;51.288;4.572;2023-07-31T00:13:52;16.50;99.90
45104;DHT22;30865;51.288;4.572;2023-07-31T00:16:18;16.30;99.90
45104;DHT22;30865;51.288;4.572;2023-07-31T00:18:44;16.20;99.90
45104;DHT22;30865;51.288;4.572;2023-07-31T00:21:09;16.20;99.90
45104;DHT22;30865;51.288;4.572;2023-07-31T00:23:35;16.30;99.90
45104;DHT22;30865;51.288;4.572;2023-07-31T00:26:00;16.20;99.90
45104;DHT22;30865;51.288;4.572;2023-07-31T00:28:26;16.20;99.90
45104;DHT22;30865;51.288;4.572;2023-07-31T00:30:52;16.10;99.90
45104;DHT22;30865;51.288;4.572;2023-07-31T00:33:18;16.00;99.90
45104;DHT22;30865;51.288;4.572;2023-07-31T00:35:43;15.90;99.90
45104;DHT22;30865;51.288;4.572;2023-07-31T00:38:09;15.80;99.90
45104;DHT22;30865;51.288;4.572;2023-07-31T00:40:35;15.70;99.90
45104;DHT22;30865;51.288;4.572;2023-07-31T00:43:02;15.80;99.90
45104;DHT22;30865;51.288;4.572;2023-07-31T00:45:28;15.80;99.90
45104;DHT22;30865;51.288;4.572;2023-07-31T00:47:54;15.80;99.90
45104;DHT22;30865;51.288;4.572;2023-07-31T00:50:19;15.80;99.90
45104;DHT22;30865;51.288;4.572;2023-07-31T00:52:45;15.80;99.90
45104;DHT22;30865;51.288;4.572;2023-07-31T00:55:11;15.80;99.90
45104;DHT22;30865;51.288;4.572;2023-07-31T00:57:37;15.70;99.90
45104;DHT22;30865;51.288;4.572;2023-07-31T01:00:04;15.70;99.90
45104;DHT22;30865;51.288;4.572;2023-07-31T01:02:29;15.80;99.90
45104;DHT22;30865;51.288;4.572;2023-07-31T01:04:55;15.80;99.90
45104;DHT22;30865;51.288;4.572;2023-07-31T01:10:07;16.00;99.90
45104;DHT22;30865;51.288;4.572;2023-07-31T01:12:34;16.00;99.90
45104;DHT22;30865;51.288;4.572;2023-07-31T01:17:28;16.10;99.90
45104;DHT22;30865;51.288;4.572;2023-07-31T01:19:56;16.10;99.90
45104;DHT22;30865;51.288;4.572;2023-07-31T01:22:39;16.10;99.90
45104;DHT22;30865;51.288;4.572;2023-07-31T01:28:04;16.20;99.90
45104;DHT22;30865;51.288;4.572;2023-07-31T01:30:38;16.10;99.90
45104;DHT22;30865;51.288;4.572;2023-07-31T01:33:05;16.00;99.90
45104;DHT22;30865;51.288;4.572;2023-07-31T01:35:36;15.90;99.90
45104;DHT22;30865;51.288;4.572;2023-07-31T01:38:02;15.80;99.90
45104;DHT22;30865;51.288;4.572;2023-07-31T01:40:28;15.60;99.90
45104;DHT22;30865;51.288;4.572;2023-07-31T01:42:53;15.60;99.90
45104;DHT22;30865;51.288;4.572;2023-07-31T01:45:19;15.60;99.90
45104;DHT22;30865;51.288;4.572;2023-07-31T01:47:45;15.60;99.90
45104;DHT22;30865;51.288;4.572;2023-07-31T01:50:10;15.50;99.90
45104;DHT22;30865;51.288;4.572;2023-07-31T01:52:36;15.50;99.90
45104;DHT22;30865;51.288;4.572;2023-07-31T01:55:01;15.50;99.90
45104;DHT22;30865;51.288;4.572;2023-07-31T01:57:27;15.40;99.90
45104;DHT22;30865;51.288;4.572;2023-07-31T01:59:52;15.30;99.90
45104;DHT22;30865;51.288;4.572;2023-07-31T02:02:19;15.30;99.90
45104;DHT22;30865;51.288;4.572;2023-07-31T02:04:45;15.20;99.90
45104;DHT22;30865;51.288;4.572;2023-07-31T02:07:10;15.20;99.90
45104;DHT22;30865;51.288;4.572;2023-07-31T02:09:36;15.10;99.90
45104;DHT22;30865;51.288;4.572;2023-07-31T02:12:02;15.10;99.90
45104;DHT22;30865;51.288;4.572;2023-07-31T02:14:27;15.10;99.90
45104;DHT22;30865;51.288;4.572;2023-07-31T02:16:53;15.10;99.90
45104;DHT22;30865;51.288;4.572;2023-07-31T02:19:18;15.10;99.90
45104;DHT22;30865;51.288;4.572;2023-07-31T02:21:44;15.20;99.90
45104;DHT22;30865;51.288;4.572;2023-07-31T02:24:10;15.30;99.90
45104;DHT22;30865;51.288;4.572;2023-07-31T02:26:35;15.30;99.90
45104;DHT22;30865;51.288;4.572;2023-07-31T02:29:01;15.30;99.90
45104;DHT22;30865;51.288;4.572;2023-07-31T02:31:26;15.20;99.90
45104;DHT22;30865;51.288;4.572;2023-07-31T02:33:52;15.20;99.90
45104;DHT22;30865;51.288;4.572;2023-07-31T02:36:17;15.20;99.90
45104;DHT22;30865;51.288;4.572;2023-07-31T02:38:43;15.30;99.90
45104;DHT22;30865;51.288;4.572;2023-07-31T02:41:08;15.30;99.90
45104;DHT22;30865;51.288;4.572;2023-07-31T02:43:34;15.30;99.90
45104;DHT22;30865;51.288;4.572;2023-07-31T02:46:00;15.40;99.90
45104;DHT22;30865;51.288;4.572;2023-07-31T02:48:25;15.40;99.90
45104;DHT22;30865;51.288;4.572;2023-07-31T02:50:51;15.50;99.90
45104;DHT22;30865;51.288;4.572;2023-07-31T02:53:16;15.50;99.90
45104;DHT22;30865;51.288;4.572;2023-07-31T02:55:42;15.40;99.90
45104;DHT22;30865;51.288;4.572;2023-07-31T02:58:07;15.40;99.90
45104;DHT22;30865;51.288;4.572;2023-07-31T03:00:33;15.40;99.90
45104;DHT22;30865;51.288;4.572;2023-07-31T03:02:58;15.30;99.90
45104;DHT22;30865;51.288;4.572;2023-07-31T03:05:24;15.30;99.90
45104;DHT22;30865;51.288;4.572;2023-07-31T03:07:49;15.30;99.90
45104;DHT22;30865;51.288;4.572;2023-07-31T03:10:15;15.30;99.90
45104;DHT22;30865;51.288;4.572;2023-07-31T03:12:40;15.20;99.90
45104;DHT22;30865;51.288;4.572;2023-07-31T03:15:07;15.20;99.90
45104;DHT22;30865;51.288;4.572;2023-07-31T03:17:32;15.20;99.90
45104;DHT22;30865;51.288;4.572;2023-07-31T03:19:58;15.20;99.90
45104;DHT22;30865;51.288;4.572;2023-07-31T03:22:23;15.20;99.90
45104;DHT22;30865;51.288;4.572;2023-07-31T03:24:49;15.30;99.90
45104;DHT22;30865;51.288;4.572;2023-07-31T03:27:14;15.20;99.90
45104;DHT22;30865;51.288;4.572;2023-07-31T03:29:40;15.30;99.90
45104;DHT22;30865;51.288;4.572;2023-07-31T03:32:05;15.30;99.90
45104;DHT22;30865;51.288;4.572;2023-07-31T03:34:31;15.40;99.90
45104;DHT22;30865;51.288;4.572;2023-07-31T03:36:58;15.40;99.90
45104;DHT22;30865;51.288;4.572;2023-07-31T03:39:23;15.40;99.90
45104;DHT22;30865;51.288;4.572;2023-07-31T03:41:49;15.40;99.90
45104;DHT22;30865;51.288;4.572;2023-07-31T03:44:15;15.30;99.90
45104;DHT22;30865;51.288;4.572;2023-07-31T03:46:41;15.30;99.90
45104;DHT22;30865;51.288;4.572;2023-07-31T03:49:06;15.30;99.90
45104;DHT22;30865;51.288;4.572;2023-07-31T03:51:32;15.30;99.90
45104;DHT22;30865;51.288;4.572;2023-07-31T03:53:57;15.30;99.90
45104;DHT22;30865;51.288;4.572;2023-07-31T03:56:23;15.30;99.90
45104;DHT22;30865;51.288;4.572;2023-07-31T03:58:48;15.40;99.90
45104;DHT22;30865;51.288;4.572;2023-07-31T04:01:14;15.30;99.90
45104;DHT22;30865;51.288;4.572;2023-07-31T04:03:39;15.30;99.90
45104;DHT22;30865;51.288;4.572;2023-07-31T04:06:05;15.30;99.90
45104;DHT22;30865;51.288;4.572;2023-07-31T04:08:32;15.30;99.90
45104;DHT22;30865;51.288;4.572;2023-07-31T04:10:57;15.40;99.90
45104;DHT22;30865;51.288;4.572;2023-07-31T04:13:23;15.30;99.90
45104;DHT22;30865;51.288;4.572;2023-07-31T04:15:51;15.30;99.90
45104;DHT22;30865;51.288;4.572;2023-07-31T04:18:17;15.30;99.90
45104;DHT22;30865;51.288;4.572;2023-07-31T04:20:42;15.40;99.90
45104;DHT22;30865;51.288;4.572;2023-07-31T04:23:08;15.40;99.90
45104;DHT22;30865;51.288;4.572;2023-07-31T04:25:33;15.40;99.90
45104;DHT22;30865;51.288;4.572;2023-07-31T04:28:00;15.50;99.90
45104;DHT22;30865;51.288;4.572;2023-07-31T04:30:26;15.60;99.90
45104;DHT22;30865;51.288;4.572;2023-07-31T04:32:51;15.60;99.90
45104;DHT22;30865;51.288;4.572;2023-07-31T04:35:17;15.60;99.90
45104;DHT22;30865;51.288;4.572;2023-07-31T04:37:42;15.60;99.90
45104;DHT22;30865;51.288;4.572;2023-07-31T04:40:08;15.60;99.90
45104;DHT22;30865;51.288;4.572;2023-07-31T04:42:33;15.60;99.90
45104;DHT22;30865;51.288;4.572;2023-07-31T04:44:59;15.70;99.90
45104;DHT22;30865;51.288;4.572;2023-07-31T04:47:25;15.70;99.90
45104;DHT22;30865;51.288;4.572;2023-07-31T04:49:50;15.60;99.90
45104;DHT22;30865;51.288;4.572;2023-07-31T04:52:16;15.60;99.90
45104;DHT22;30865;51.288;4.572;2023-07-31T04:54:41;15.60;99.90
45104;DHT22;30865;51.288;4.572;2023-07-31T04:57:07;15.50;99.90
45104;DHT22;30865;51.288;4.572;2023-07-31T04:59:32;15.50;99.90
45104;DHT22;30865;51.288;4.572;2023-07-31T05:01:58;15.40;99.90
45104;DHT22;30865;51.288;4.572;2023-07-31T05:04:23;15.50;99.90
45104;DHT22;30865;51.288;4.572;2023-07-31T05:06:49;15.60;99.90
45104;DHT22;30865;51.288;4.572;2023-07-31T05:09:14;15.60;99.90
45104;DHT22;30865;51.288;4.572;2023-07-31T05:11:40;15.60;99.90
45104;DHT22;30865;51.288;4.572;2023-07-31T05:14:08;15.60;99.90
45104;DHT22;30865;51.288;4.572;2023-07-31T05:16:33;15.50;99.90
45104;DHT22;30865;51.288;4.572;2023-07-31T05:18:59;15.50;99.90
45104;DHT22;30865;51.288;4.572;2023-07-31T05:21:24;15.60;99.90
45104;DHT22;30865;51.288;4.572;2023-07-31T05:23:50;15.60;99.90
45104;DHT22;30865;51.288;4.572;2023-07-31T05:26:15;15.50;99.90
45104;DHT22;30865;51.288;4.572;2023-07-31T05:28:41;15.50;99.90
45104;DHT22;30865;51.288;4.572;2023-07-31T05:31:06;15.50;99.90
45104;DHT22;30865;51.288;4.572;2023-07-31T05:33:32;15.50;99.90
45104;DHT22;30865;51.288;4.572;2023-07-31T05:35:58;15.60;99.90
45104;DHT22;30865;51.288;4.572;2023-07-31T05:38:23;15.60;99.90
45104;DHT22;30865;51.288;4.572;2023-07-31T05:40:49;15.60;99.90
45104;DHT22;30865;51.288;4.572;2023-07-31T05:43:14;15.60;99.90
45104;DHT22;30865;51.288;4.572;2023-07-31T05:45:42;15.60;99.90
45104;DHT22;30865;51.288;4.572;2023-07-31T05:48:07;15.80;99.90
45104;DHT22;30865;51.288;4.572;2023-07-31T05:50:33;15.90;99.90
45104;DHT22;30865;51.288;4.572;2023-07-31T05:52:58;16.20;99.90
45104;DHT22;30865;51.288;4.572;2023-07-31T05:55:24;16.30;99.90
45104;DHT22;30865;51.288;4.572;2023-07-31T05:57:52;16.60;99.90
45104;DHT22;30865;51.288;4.572;2023-07-31T06:00:17;16.80;99.90
45104;DHT22;30865;51.288;4.572;2023-07-31T06:02:43;16.90;99.90
45104;DHT22;30865;51.288;4.572;2023-07-31T06:05:09;17.20;99.90
45104;DHT22;30865;51.288;4.572;2023-07-31T06:07:34;17.30;99.90
45104;DHT22;30865;51.288;4.572;2023-07-31T06:10:00;17.40;99.90
45104;DHT22;30865;51.288;4.572;2023-07-31T06:12:35;17.50;99.90
45104;DHT22;30865;51.288;4.572;2023-07-31T06:15:01;17.60;99.90
45104;DHT22;30865;51.288;4.572;2023-07-31T06:17:27;17.70;99.90
45104;DHT22;30865;51.288;4.572;2023-07-31T06:19:53;17.90;99.90
45104;DHT22;30865;51.288;4.572;2023-07-31T06:22:19;18.00;99.90
45104;DHT22;30865;51.288;4.572;2023-07-31T06:24:44;18.20;99.90
45104;DHT22;30865;51.288;4.572;2023-07-31T06:27:10;18.30;99.90
45104;DHT22;30865;51.288;4.572;2023-07-31T06:29:36;18.40;99.90
45104;DHT22;30865;51.288;4.572;2023-07-31T06:32:01;18.60;99.90
45104;DHT22;30865;51.288;4.572;2023-07-31T06:34:27;18.90;99.90
45104;DHT22;30865;51.288;4.572;2023-07-31T06:36:52;19.10;99.90
45104;DHT22;30865;51.288;4.572;2023-07-31T06:39:18;19.30;99.90
45104;DHT22;30865;51.288;4.572;2023-07-31T06:41:44;19.40;99.90
45104;DHT22;30865;51.288;4.572;2023-07-31T06:44:12;19.50;99.90
45104;DHT22;30865;51.288;4.572;2023-07-31T06:46:38;19.60;99.90
45104;DHT22;30865;51.288;4.572;2023-07-31T06:49:03;19.50;99.90
45104;DHT22;30865;51.288;4.572;2023-07-31T06:51:29;19.60;99.90
45104;DHT22;30865;51.288;4.572;2023-07-31T06:53:57;19.80;99.90
45104;DHT22;30865;51.288;4.572;2023-07-31T06:56:22;19.90;99.90
45104;DHT22;30865;51.288;4.572;2023-07-31T06:58:48;20.00;99.90
45104;DHT22;30865;51.288;4.572;2023-07-31T07:01:13;20.00;99.90
45104;DHT22;30865;51.288;4.572;2023-07-31T07:03:39;20.10;99.90
45104;DHT22;30865;51.288;4.572;2023-07-31T07:06:05;20.00;99.90
45104;DHT22;30865;51.288;4.572;2023-07-31T07:08:30;19.90;99.90
45104;DHT22;30865;51.288;4.572;2023-07-31T07:10:56;20.20;99.90
45104;DHT22;30865;51.288;4.572;2023-07-31T07:13:21;20.40;99.90
45104;DHT22;30865;51.288;4.572;2023-07-31T07:15:50;20.20;99.90
45104;DHT22;30865;51.288;4.572;2023-07-31T07:18:16;20.10;99.90
45104;DHT22;30865;51.288;4.572;2023-07-31T07:20:52;20.30;99.90
45104;DHT22;30865;51.288;4.572;2023-07-31T07:23:18;20.60;99.90
45104;DHT22;30865;51.288;4.572;2023-07-31T07:25:45;20.30;99.90
45104;DHT22;30865;51.288;4.572;2023-07-31T07:28:11;20.30;99.90
45104;DHT22;30865;51.288;4.572;2023-07-31T07:30:37;20.10;99.90
45104;DHT22;30865;51.288;4.572;2023-07-31T07:33:02;20.30;99.90
45104;DHT22;30865;51.288;4.572;2023-07-31T07:35:28;20.30;99.90
45104;DHT22;30865;51.288;4.572;2023-07-31T07:37:53;20.40;99.90
45104;DHT22;30865;51.288;4.572;2023-07-31T07:40:20;20.30;99.90
45104;DHT22;30865;51.288;4.572;2023-07-31T07:42:45;20.30;99.90
45104;DHT22;30865;51.288;4.572;2023-07-31T07:45:11;20.20;99.90
45104;DHT22;30865;51.288;4.572;2023-07-31T07:47:38;20.30;99.90
45104;DHT22;30865;51.288;4.572;2023-07-31T07:50:04;20.20;99.90
45104;DHT22;30865;51.288;4.572;2023-07-31T07:52:30;20.50;99.90
45104;DHT22;30865;51.288;4.572;2023-07-31T07:54:55;20.30;99.90
45104;DHT22;30865;51.288;4.572;2023-07-31T07:57:21;20.30;99.90
45104;DHT22;30865;51.288;4.572;2023-07-31T07:59:46;20.70;99.90
45104;DHT22;30865;51.288;4.572;2023-07-31T08:02:12;20.90;99.90
45104;DHT22;30865;51.288;4.572;2023-07-31T08:04:37;21.00;99.90
45104;DHT22;30865;51.288;4.572;2023-07-31T08:07:03;20.80;99.30
45104;DHT22;30865;51.288;4.572;2023-07-31T08:09:28;21.10;99.30
45104;DHT22;30865;51.288;4.572;2023-07-31T08:11:54;21.30;96.80
45104;DHT22;30865;51.288;4.572;2023-07-31T08:14:19;21.50;96.00
45104;DHT22;30865;51.288;4.572;2023-07-31T08:16:45;21.70;95.80
45104;DHT22;30865;51.288;4.572;2023-07-31T08:19:11;21.70;95.00
45104;DHT22;30865;51.288;4.572;2023-07-31T08:21:36;22.00;93.30
45104;DHT22;30865;51.288;4.572;2023-07-31T08:24:02;21.70;92.50
45104;DHT22;30865;51.288;4.572;2023-07-31T08:26:27;21.50;93.50
45104;DHT22;30865;51.288;4.572;2023-07-31T08:28:53;21.40;94.40
45104;DHT22;30865;51.288;4.572;2023-07-31T08:31:19;21.40;94.50
45104;DHT22;30865;51.288;4.572;2023-07-31T08:33:44;21.20;94.70
45104;DHT22;30865;51.288;4.572;2023-07-31T08:36:10;21.40;92.30
45104;DHT22;30865;51.288;4.572;2023-07-31T08:38:35;21.70;92.80
45104;DHT22;30865;51.288;4.572;2023-07-31T08:41:03;22.60;89.30
45104;DHT22;30865;51.288;4.572;2023-07-31T08:43:30;22.40;85.70
45104;DHT22;30865;51.288;4.572;2023-07-31T08:45:56;22.00;89.90
45104;DHT22;30865;51.288;4.572;2023-07-31T08:48:23;21.60;91.40
45104;DHT22;30865;51.288;4.572;2023-07-31T08:50:50;22.20;90.50
45104;DHT22;30865;51.288;4.572;2023-07-31T08:53:15;22.10;88.50
45104;DHT22;30865;51.288;4.572;2023-07-31T08:55:42;22.00;91.00
45104;DHT22;30865;51.288;4.572;2023-07-31T08:58:08;22.00;90.70
45104;DHT22;30865;51.288;4.572;2023-07-31T09:00:35;22.00;90.90
45104;DHT22;30865;51.288;4.572;2023-07-31T09:03:13;22.20;90.10
45104;DHT22;30865;51.288;4.572;2023-07-31T09:05:39;23.10;85.60
45104;DHT22;30865;51.288;4.572;2023-07-31T09:08:07;22.50;85.90
45104;DHT22;30865;51.288;4.572;2023-07-31T09:10:35;22.30;90.20
45104;DHT22;30865;51.288;4.572;2023-07-31T09:13:00;22.70;87.30
45104;DHT22;30865;51.288;4.572;2023-07-31T09:15:27;22.20;88.60
45104;DHT22;30865;51.288;4.572;2023-07-31T09:18:01;21.60;91.10
45104;DHT22;30865;51.288;4.572;2023-07-31T09:20:27;22.00;90.80
45104;DHT22;30865;51.288;4.572;2023-07-31T09:22:54;22.50;88.40
45104;DHT22;30865;51.288;4.572;2023-07-31T09:25:25;22.60;88.80
45104;DHT22;30865;51.288;4.572;2023-07-31T09:27:54;23.10;85.30
45104;DHT22;30865;51.288;4.572;2023-07-31T09:30:20;23.50;82.10
45104;DHT22;30865;51.288;4.572;2023-07-31T09:32:47;23.00;83.60
45104;DHT22;30865;51.288;4.572;2023-07-31T09:38:05;22.10;89.80
45104;DHT22;30865;51.288;4.572;2023-07-31T09:40:33;21.80;91.90
45104;DHT22;30865;51.288;4.572;2023-07-31T09:43:02;21.80;91.90
45104;DHT22;30865;51.288;4.572;2023-07-31T09:45:28;22.30;90.20
45104;DHT22;30865;51.288;4.572;2023-07-31T09:47:55;22.30;90.70
45104;DHT22;30865;51.288;4.572;2023-07-31T09:50:23;22.30;90.00
45104;DHT22;30865;51.288;4.572;2023-07-31T09:52:49;22.30;91.20
45104;DHT22;30865;51.288;4.572;2023-07-31T09:55:14;22.10;90.50
45104;DHT22;30865;51.288;4.572;2023-07-31T09:57:45;21.80;91.20
45104;DHT22;30865;51.288;4.572;2023-07-31T10:00:12;21.80;92.10
45104;DHT22;30865;51.288;4.572;2023-07-31T10:02:38;21.90;92.70
45104;DHT22;30865;51.288;4.572;2023-07-31T10:05:05;21.80;92.60
45104;DHT22;30865;51.288;4.572;2023-07-31T10:07:36;22.10;91.80
45104;DHT22;30865;51.288;4.572;2023-07-31T10:10:04;21.90;92.40
45104;DHT22;30865;51.288;4.572;2023-07-31T10:12:32;22.00;93.30
45104;DHT22;30865;51.288;4.572;2023-07-31T10:15:00;22.30;91.70
45104;DHT22;30865;51.288;4.572;2023-07-31T10:17:26;22.40;91.10
45104;DHT22;30865;51.288;4.572;2023-07-31T10:19:53;22.10;91.10
45104;DHT22;30865;51.288;4.572;2023-07-31T10:22:20;22.00;92.20
45104;DHT22;30865;51.288;4.572;2023-07-31T10:24:46;22.30;91.20
45104;DHT22;30865;51.288;4.572;2023-07-31T10:27:12;22.80;90.10
45104;DHT22;30865;51.288;4.572;2023-07-31T10:29:39;23.00;88.20
45104;DHT22;30865;51.288;4.572;2023-07-31T10:32:06;22.90;88.10
45104;DHT22;30865;51.288;4.572;2023-07-31T10:34:35;22.70;87.30
45104;DHT22;30865;51.288;4.572;2023-07-31T10:37:22;23.00;82.60
45104;DHT22;30865;51.288;4.572;2023-07-31T10:40:04;23.30;77.80
45104;DHT22;30865;51.288;4.572;2023-07-31T10:42:35;23.70;74.60
45104;DHT22;30865;51.288;4.572;2023-07-31T10:45:06;23.10;77.10
45104;DHT22;30865;51.288;4.572;2023-07-31T10:47:38;22.60;81.10
45104;DHT22;30865;51.288;4.572;2023-07-31T10:50:18;23.00;82.00
45104;DHT22;30865;51.288;4.572;2023-07-31T10:52:47;23.30;82.70
45104;DHT22;30865;51.288;4.572;2023-07-31T10:55:41;23.10;79.10
45104;DHT22;30865;51.288;4.572;2023-07-31T10:58:13;23.10;83.50
45104;DHT22;30865;51.288;4.572;2023-07-31T11:00:41;23.00;80.70
45104;DHT22;30865;51.288;4.572;2023-07-31T11:03:12;23.30;79.80
45104;DHT22;30865;51.288;4.572;2023-07-31T11:05:52;23.60;80.00
45104;DHT22;30865;51.288;4.572;2023-07-31T11:08:25;24.50;72.70
45104;DHT22;30865;51.288;4.572;2023-07-31T11:11:13;25.30;68.10
45104;DHT22;30865;51.288;4.572;2023-07-31T11:13:46;24.50;69.00
45104;DHT22;30865;51.288;4.572;2023-07-31T11:16:13;24.20;67.00
45104;DHT22;30865;51.288;4.572;2023-07-31T11:18:41;23.90;70.20
45104;DHT22;30865;51.288;4.572;2023-07-31T11:21:07;23.60;72.00
45104;DHT22;30865;51.288;4.572;2023-07-31T11:23:33;24.10;71.70
45104;DHT22;30865;51.288;4.572;2023-07-31T11:26:01;24.30;70.20
45104;DHT22;30865;51.288;4.572;2023-07-31T11:28:34;24.30;68.80
45104;DHT22;30865;51.288;4.572;2023-07-31T11:31:01;23.70;72.90
45104;DHT22;30865;51.288;4.572;2023-07-31T11:33:27;23.40;74.60
45104;DHT22;30865;51.288;4.572;2023-07-31T11:35:52;23.00;76.90
45104;DHT22;30865;51.288;4.572;2023-07-31T11:38:32;23.00;76.00
45104;DHT22;30865;51.288;4.572;2023-07-31T11:41:03;22.90;79.60
45104;DHT22;30865;51.288;4.572;2023-07-31T11:43:29;22.90;77.00
45104;DHT22;30865;51.288;4.572;2023-07-31T11:46:00;22.60;80.10
45104;DHT22;30865;51.288;4.572;2023-07-31T11:48:36;22.70;81.40
45104;DHT22;30865;51.288;4.572;2023-07-31T11:51:04;23.00;80.50
45104;DHT22;30865;51.288;4.572;2023-07-31T11:53:49;22.90;79.10
45104;DHT22;30865;51.288;4.572;2023-07-31T11:56:20;22.80;79.90
45104;DHT22;30865;51.288;4.572;2023-07-31T11:58:47;22.70;81.70
45104;DHT22;30865;51.288;4.572;2023-07-31T12:01:15;22.80;80.90
45104;DHT22;30865;51.288;4.572;2023-07-31T12:03:41;22.80;82.20
45104;DHT22;30865;51.288;4.572;2023-07-31T12:06:08;23.00;81.90
45104;DHT22;30865;51.288;4.572;2023-07-31T12:08:34;22.90;82.30
45104;DHT22;30865;51.288;4.572;2023-07-31T12:11:07;23.10;82.60
45104;DHT22;30865;51.288;4.572;2023-07-31T12:13:34;23.10;82.80
45104;DHT22;30865;51.288;4.572;2023-07-31T12:16:02;23.30;81.30
45104;DHT22;30865;51.288;4.572;2023-07-31T12:18:38;23.10;81.00
45104;DHT22;30865;51.288;4.572;2023-07-31T12:21:06;23.00;82.00
45104;DHT22;30865;51.288;4.572;2023-07-31T12:23:32;22.90;83.20
45104;DHT22;30865;51.288;4.572;2023-07-31T12:26:07;23.10;83.60
45104;DHT22;30865;51.288;4.572;2023-07-31T12:28:54;23.20;81.70
45104;DHT22;30865;51.288;4.572;2023-07-31T12:31:27;23.30;79.90
45104;DHT22;30865;51.288;4.572;2023-07-31T12:33:53;23.40;82.40
45104;DHT22;30865;51.288;4.572;2023-07-31T12:36:23;23.60;82.80
45104;DHT22;30865;51.288;4.572;2023-07-31T12:38:50;23.50;82.00
45104;DHT22;30865;51.288;4.572;2023-07-31T12:41:15;23.40;82.00
45104;DHT22;30865;51.288;4.572;2023-07-31T12:43:43;23.30;83.60
45104;DHT22;30865;51.288;4.572;2023-07-31T12:46:09;23.30;84.00
45104;DHT22;30865;51.288;4.572;2023-07-31T12:48:35;23.20;81.60
45104;DHT22;30865;51.288;4.572;2023-07-31T12:51:01;23.10;83.30
45104;DHT22;30865;51.288;4.572;2023-07-31T12:53:28;23.10;84.10
45104;DHT22;30865;51.288;4.572;2023-07-31T12:55:55;23.40;81.50
45104;DHT22;30865;51.288;4.572;2023-07-31T12:58:20;23.30;82.30
45104;DHT22;30865;51.288;4.572;2023-07-31T13:00:46;23.10;83.10
45104;DHT22;30865;51.288;4.572;2023-07-31T13:03:11;23.10;83.10
45104;DHT22;30865;51.288;4.572;2023-07-31T13:05:37;22.80;85.60
45104;DHT22;30865;51.288;4.572;2023-07-31T13:08:03;22.90;86.90
45104;DHT22;30865;51.288;4.572;2023-07-31T13:10:28;22.80;87.00
45104;DHT22;30865;51.288;4.572;2023-07-31T13:12:55;22.70;87.40
45104;DHT22;30865;51.288;4.572;2023-07-31T13:15:20;22.70;88.80
45104;DHT22;30865;51.288;4.572;2023-07-31T13:17:46;22.80;87.20
45104;DHT22;30865;51.288;4.572;2023-07-31T13:20:12;22.80;88.90
45104;DHT22;30865;51.288;4.572;2023-07-31T13:22:38;22.80;89.00
45104;DHT22;30865;51.288;4.572;2023-07-31T13:25:04;23.10;86.50
45104;DHT22;30865;51.288;4.572;2023-07-31T13:27:30;23.50;84.60
45104;DHT22;30865;51.288;4.572;2023-07-31T13:29:56;23.70;83.00
45104;DHT22;30865;51.288;4.572;2023-07-31T13:32:21;23.60;81.50
45104;DHT22;30865;51.288;4.572;2023-07-31T13:34:47;23.80;80.50
45104;DHT22;30865;51.288;4.572;2023-07-31T13:37:14;24.00;78.60
45104;DHT22;30865;51.288;4.572;2023-07-31T13:39:40;24.70;75.30
45104;DHT22;30865;51.288;4.572;2023-07-31T13:42:06;24.80;72.30
45104;DHT22;30865;51.288;4.572;2023-07-31T13:44:36;24.90;72.70
45104;DHT22;30865;51.288;4.572;2023-07-31T13:47:02;24.90;72.20
45104;DHT22;30865;51.288;4.572;2023-07-31T13:49:29;25.70;67.20
45104;DHT22;30865;51.288;4.572;2023-07-31T13:51:55;25.90;64.40
45104;DHT22;30865;51.288;4.572;2023-07-31T13:54:21;25.90;63.60
45104;DHT22;30865;51.288;4.572;2023-07-31T13:56:47;25.90;64.50
45104;DHT22;30865;51.288;4.572;2023-07-31T13:59:12;25.70;64.40
45104;DHT22;30865;51.288;4.572;2023-07-31T14:01:40;25.50;66.60
45104;DHT22;30865;51.288;4.572;2023-07-31T14:04:05;25.60;65.30
45104;DHT22;30865;51.288;4.572;2023-07-31T14:06:31;25.40;65.20
45104;DHT22;30865;51.288;4.572;2023-07-31T14:08:57;25.20;66.80
45104;DHT22;30865;51.288;4.572;2023-07-31T14:11:22;24.90;68.20
45104;DHT22;30865;51.288;4.572;2023-07-31T14:13:49;25.00;69.50
45104;DHT22;30865;51.288;4.572;2023-07-31T14:16:15;24.70;70.40
45104;DHT22;30865;51.288;4.572;2023-07-31T14:18:41;24.70;72.20
45104;DHT22;30865;51.288;4.572;2023-07-31T14:21:07;24.90;72.80
45104;DHT22;30865;51.288;4.572;2023-07-31T14:23:33;24.90;72.30
45104;DHT22;30865;51.288;4.572;2023-07-31T14:25:59;24.90;71.20
45104;DHT22;30865;51.288;4.572;2023-07-31T14:28:24;24.90;72.30
45104;DHT22;30865;51.288;4.572;2023-07-31T14:30:50;24.80;71.60
45104;DHT22;30865;51.288;4.572;2023-07-31T14:33:15;25.00;71.20
45104;DHT22;30865;51.288;4.572;2023-07-31T14:35:41;24.80;73.10
45104;DHT22;30865;51.288;4.572;2023-07-31T14:38:06;24.50;75.20
45104;DHT22;30865;51.288;4.572;2023-07-31T14:40:32;24.30;75.60
45104;DHT22;30865;51.288;4.572;2023-07-31T14:42:57;24.40;76.30
45104;DHT22;30865;51.288;4.572;2023-07-31T14:45:23;24.20;76.70
45104;DHT22;30865;51.288;4.572;2023-07-31T14:47:48;24.30;77.60
45104;DHT22;30865;51.288;4.572;2023-07-31T14:50:14;24.40;77.50
45104;DHT22;30865;51.288;4.572;2023-07-31T14:52:39;24.50;76.40
45104;DHT22;30865;51.288;4.572;2023-07-31T14:55:05;24.70;79.10
45104;DHT22;30865;51.288;4.572;2023-07-31T14:57:31;24.40;79.00
45104;DHT22;30865;51.288;4.572;2023-07-31T14:59:56;24.70;79.40
45104;DHT22;30865;51.288;4.572;2023-07-31T15:02:22;25.00;75.00
45104;DHT22;30865;51.288;4.572;2023-07-31T15:04:47;25.20;74.40
45104;DHT22;30865;51.288;4.572;2023-07-31T15:07:13;25.70;71.90
45104;DHT22;30865;51.288;4.572;2023-07-31T15:09:39;25.30;69.70
45104;DHT22;30865;51.288;4.572;2023-07-31T15:12:05;25.50;67.60
45104;DHT22;30865;51.288;4.572;2023-07-31T15:14:30;25.20;67.10
45104;DHT22;30865;51.288;4.572;2023-07-31T15:16:56;25.30;67.60
45104;DHT22;30865;51.288;4.572;2023-07-31T15:19:22;24.90;68.50
45104;DHT22;30865;51.288;4.572;2023-07-31T15:21:48;24.70;69.40
45104;DHT22;30865;51.288;4.572;2023-07-31T15:24:14;24.90;69.10
45104;DHT22;30865;51.288;4.572;2023-07-31T15:26:39;25.50;64.90
45104;DHT22;30865;51.288;4.572;2023-07-31T15:29:07;27.10;60.20
45104;DHT22;30865;51.288;4.572;2023-07-31T15:31:40;27.10;58.30
45104;DHT22;30865;51.288;4.572;2023-07-31T15:34:08;27.40;57.70
45104;DHT22;30865;51.288;4.572;2023-07-31T15:36:34;28.20;55.50
45104;DHT22;30865;51.288;4.572;2023-07-31T15:38:59;27.60;53.70